createdAt,value
2017-03-27T00:00:31.688Z,93.08
2017-03-27T00:01:31.373Z,92.65
2017-03-27T00:02:31.656Z,93.08
2017-03-27T00:03:31.647Z,92.98
2017-03-27T00:04:31.617Z,92.93
2017-03-27T00:05:31.314Z,92.84
2017-03-27T00:06:31.615Z,92.55
2017-03-27T00:07:31.562Z,92.08
2017-03-27T00:08:31.586Z,91.88
2017-03-27T00:09:31.617Z,92.27
2017-03-27T00:10:31.486Z,92.17
2017-03-27T00:11:31.486Z,92.36
2017-03-27T00:12:31.545Z,92.36
2017-03-27T00:13:31.488Z,92.27
2017-03-27T00:14:31.417Z,93.03
2017-03-27T00:15:31.385Z,93.12
2017-03-27T00:16:31.465Z,92.84
2017-03-27T00:17:31.054Z,92.74
2017-03-27T00:18:31.333Z,92.65
2017-03-27T00:19:31.335Z,92.36
2017-03-27T00:20:31.295Z,92.74
2017-03-27T00:21:31.425Z,92.84
2017-03-27T00:22:31.265Z,93.32
2017-03-27T00:23:30.918Z,93.22
2017-03-27T00:24:31.319Z,93.03
2017-03-27T00:25:31.201Z,92.93
2017-03-27T00:26:31.265Z,93.12
2017-03-27T00:27:31.209Z,93.12
2017-03-27T00:28:31.118Z,93.32
2017-03-27T00:29:31.128Z,93.12
2017-03-27T00:30:30.775Z,93.22
2017-03-27T00:31:31.065Z,93.32
2017-03-27T00:32:30.735Z,93.32
2017-03-27T00:33:31.025Z,93.32
2017-03-27T00:34:30.996Z,93.03
2017-03-27T00:35:30.673Z,93.6
2017-03-27T00:36:30.966Z,93.6
2017-03-27T00:37:30.946Z,93.32
2017-03-27T00:38:30.979Z,93.6
2017-03-27T00:39:30.590Z,93.32
2017-03-27T00:40:30.876Z,93.22
2017-03-27T00:41:30.552Z,93.22
2017-03-27T00:42:30.535Z,93.08
2017-03-27T00:43:30.846Z,93.6
2017-03-27T00:44:30.806Z,93.32
2017-03-27T00:45:30.774Z,93.12
2017-03-27T00:46:30.762Z,93.22
2017-03-27T00:47:30.425Z,93.12
2017-03-27T00:48:30.727Z,92.74
2017-03-27T00:49:30.695Z,93.08
2017-03-27T00:50:30.751Z,93.17
2017-03-27T00:51:30.347Z,93.08
2017-03-27T00:52:30.691Z,93.55
2017-03-27T00:53:30.639Z,93.12
2017-03-27T00:54:30.591Z,92.98
2017-03-27T00:55:30.266Z,92.98
2017-03-27T00:56:30.545Z,92.69
2017-03-27T00:57:30.525Z,92.89
2017-03-27T00:58:30.505Z,93.08
2017-03-27T00:59:30.495Z,93.27
2017-03-27T01:00:30.466Z,92.89
2017-03-27T01:01:30.443Z,92.69
2017-03-27T01:02:30.417Z,92.89
2017-03-27T01:03:30.403Z,92.98
2017-03-27T01:04:30.385Z,93.17
2017-03-27T01:05:30.356Z,93.17
2017-03-27T01:06:30.336Z,93.55
2017-03-27T01:07:30.318Z,93.27
2017-03-27T01:08:30.296Z,93.46
2017-03-27T01:09:30.297Z,93.08
2017-03-27T01:10:30.277Z,93.46
2017-03-27T01:11:29.941Z,93.08
2017-03-27T01:12:29.915Z,93.08
2017-03-27T01:13:30.196Z,93.17
2017-03-27T01:14:30.175Z,93.37
2017-03-27T01:15:30.154Z,93.37
2017-03-27T01:16:30.135Z,93.65
2017-03-27T01:17:30.116Z,93.74
2017-03-27T01:18:30.095Z,93.74
2017-03-27T01:19:30.076Z,93.93
2017-03-27T01:20:30.055Z,93.46
2017-03-27T01:21:30.027Z,93.55
2017-03-27T01:22:30.015Z,93.93
2017-03-27T01:23:29.718Z,93.74
2017-03-27T01:24:29.974Z,94.32
2017-03-27T01:25:29.654Z,94.32
2017-03-27T01:26:29.927Z,94.22
2017-03-27T01:27:29.936Z,94.03
2017-03-27T01:28:29.887Z,94.41
2017-03-27T01:29:29.869Z,94.22
2017-03-27T01:30:29.843Z,94.32
2017-03-27T01:31:29.839Z,93.93
2017-03-27T01:32:29.806Z,93.74
2017-03-27T01:33:29.782Z,94.41
2017-03-27T01:34:29.766Z,93.74
2017-03-27T01:35:29.836Z,93.93
2017-03-27T01:36:29.726Z,94.41
2017-03-27T01:37:29.397Z,93.74
2017-03-27T01:38:29.677Z,93.65
2017-03-27T01:39:29.500Z,93.55
2017-03-27T01:40:29.636Z,93.55
2017-03-27T01:41:29.316Z,93.74
2017-03-27T01:42:29.588Z,93.7
2017-03-27T01:43:29.576Z,93.7
2017-03-27T01:44:29.546Z,93.32
2017-03-27T01:45:29.650Z,93.17
2017-03-27T01:46:29.505Z,93.13
2017-03-27T01:47:29.491Z,93.7
2017-03-27T01:48:29.166Z,93.79
2017-03-27T01:49:29.445Z,93.7
2017-03-27T01:50:29.430Z,93.65
2017-03-27T01:51:29.415Z,93.51
2017-03-27T01:52:29.386Z,93.79
2017-03-27T01:53:29.367Z,93.7
2017-03-27T01:54:29.035Z,93.98
2017-03-27T01:55:29.329Z,93.6
2017-03-27T01:56:29.294Z,94.08
2017-03-27T01:57:29.280Z,94.65
2017-03-27T01:58:29.260Z,94.74
2017-03-27T01:59:29.240Z,94.65
2017-03-27T02:00:29.215Z,95.12
2017-03-27T02:01:29.198Z,94.17
2017-03-27T02:02:29.176Z,94.37
2017-03-27T02:03:28.897Z,94.65
2017-03-27T02:04:29.175Z,94.56
2017-03-27T02:05:28.807Z,94.65
2017-03-27T02:06:29.086Z,94.27
2017-03-27T02:07:29.069Z,94.08
2017-03-27T02:08:29.046Z,94.37
2017-03-27T02:09:29.026Z,94.27
2017-03-27T02:10:29.015Z,94.37
2017-03-27T02:11:28.987Z,94.17
2017-03-27T02:12:28.965Z,93.98
2017-03-27T02:13:28.947Z,93.98
2017-03-27T02:14:28.926Z,94.27
2017-03-27T02:15:28.597Z,94.27
2017-03-27T02:16:28.876Z,94.27
2017-03-27T02:17:28.554Z,94.17
2017-03-27T02:18:28.845Z,93.98
2017-03-27T02:19:28.815Z,93.6
2017-03-27T02:20:28.796Z,93.89
2017-03-27T02:21:28.773Z,93.79
2017-03-27T02:22:28.766Z,94.17
2017-03-27T02:23:28.737Z,93.98
2017-03-27T02:24:28.720Z,94.08
2017-03-27T02:25:28.696Z,94.17
2017-03-27T02:26:28.669Z,94.37
2017-03-27T02:27:28.334Z,94.27
2017-03-27T02:28:28.316Z,94.37
2017-03-27T02:29:28.606Z,94.37
2017-03-27T02:30:28.599Z,94.37
2017-03-27T02:31:28.556Z,93.98
2017-03-27T02:32:28.537Z,93.98
2017-03-27T02:33:28.206Z,93.98
2017-03-27T02:34:28.497Z,94.46
2017-03-27T02:35:28.175Z,94.08
2017-03-27T02:36:28.466Z,94.08
2017-03-27T02:37:28.127Z,94.27
2017-03-27T02:38:28.417Z,94.27
2017-03-27T02:39:28.398Z,94.17
2017-03-27T02:40:28.379Z,94.08
2017-03-27T02:41:28.358Z,94.27
2017-03-27T02:42:28.332Z,93.98
2017-03-27T02:43:28.001Z,94.17
2017-03-27T02:44:28.276Z,94.17
2017-03-27T02:45:27.970Z,94.27
2017-03-27T02:46:28.239Z,94.27
2017-03-27T02:47:28.217Z,93.89
2017-03-27T02:48:28.205Z,93.89
2017-03-27T02:49:28.178Z,94.37
2017-03-27T02:50:27.846Z,93.74
2017-03-27T02:51:28.147Z,93.84
2017-03-27T02:52:28.111Z,93.65
2017-03-27T02:53:28.097Z,93.84
2017-03-27T02:54:28.078Z,93.84
2017-03-27T02:55:28.048Z,93.79
2017-03-27T02:56:28.023Z,93.46
2017-03-27T02:57:28.008Z,93.94
2017-03-27T02:58:27.986Z,94.13
2017-03-27T02:59:27.657Z,93.65
2017-03-27T03:00:27.634Z,93.84
2017-03-27T03:01:27.927Z,93.51
2017-03-27T03:02:27.909Z,94.22
2017-03-27T03:03:27.888Z,93.84
2017-03-27T03:04:27.857Z,93.84
2017-03-27T03:05:27.837Z,94.42
2017-03-27T03:06:27.516Z,93.94
2017-03-27T03:07:27.791Z,94.22
2017-03-27T03:08:27.497Z,94.22
2017-03-27T03:09:27.759Z,94.42
2017-03-27T03:10:27.727Z,94.6
2017-03-27T03:11:27.705Z,94.51
2017-03-27T03:12:27.688Z,94.6
2017-03-27T03:13:27.353Z,94.32
2017-03-27T03:14:27.340Z,94.22
2017-03-27T03:15:27.623Z,94.42
2017-03-27T03:16:27.296Z,94.42
2017-03-27T03:17:27.577Z,94.6
2017-03-27T03:18:27.556Z,94.51
2017-03-27T03:19:27.231Z,94.42
2017-03-27T03:20:27.516Z,94.13
2017-03-27T03:21:27.535Z,94.13
2017-03-27T03:22:27.466Z,94.13
2017-03-27T03:23:27.452Z,93.94
2017-03-27T03:24:27.120Z,94.13
2017-03-27T03:25:27.097Z,94.13
2017-03-27T03:26:27.377Z,93.94
2017-03-27T03:27:27.397Z,94.42
2017-03-27T03:28:27.348Z,94.42
2017-03-27T03:29:27.324Z,94.42
2017-03-27T03:30:27.295Z,93.94
2017-03-27T03:31:27.277Z,94.22
2017-03-27T03:32:27.256Z,94.13
2017-03-27T03:33:27.257Z,93.65
2017-03-27T03:34:27.219Z,93.94
2017-03-27T03:35:27.217Z,94.03
2017-03-27T03:36:26.859Z,93.94
2017-03-27T03:37:27.148Z,94.03
2017-03-27T03:38:27.127Z,93.65
2017-03-27T03:39:27.180Z,93.84
2017-03-27T03:40:27.076Z,94.22
2017-03-27T03:41:27.060Z,94.13
2017-03-27T03:42:26.733Z,94.32
2017-03-27T03:43:27.021Z,94.22
2017-03-27T03:44:27.000Z,93.94
2017-03-27T03:45:26.987Z,93.65
2017-03-27T03:46:26.956Z,94.13
2017-03-27T03:47:26.618Z,93.94
2017-03-27T03:48:26.615Z,94.13
2017-03-27T03:49:26.972Z,94.42
2017-03-27T03:50:26.867Z,94.22
2017-03-27T03:51:26.536Z,93.74
2017-03-27T03:52:26.515Z,93.65
2017-03-27T03:53:26.796Z,94.03
2017-03-27T03:54:26.795Z,94.13
2017-03-27T03:55:26.755Z,93.46
2017-03-27T03:56:26.745Z,93.55
2017-03-27T03:57:26.721Z,94.03
2017-03-27T03:58:26.376Z,93.84
2017-03-27T03:59:26.355Z,93.84
2017-03-27T04:00:26.346Z,94.03
2017-03-27T04:01:26.634Z,94.13
2017-03-27T04:02:26.308Z,94.22
2017-03-27T04:03:26.577Z,94.03
2017-03-27T04:04:26.556Z,93.94
2017-03-27T04:05:26.548Z,93.84
2017-03-27T04:06:26.516Z,93.84
2017-03-27T04:07:26.507Z,93.7
2017-03-27T04:08:26.474Z,94.18
2017-03-27T04:09:26.148Z,94.37
2017-03-27T04:10:26.428Z,94.37
2017-03-27T04:11:26.406Z,94.37
2017-03-27T04:12:26.386Z,93.98
2017-03-27T04:13:26.377Z,94.37
2017-03-27T04:14:26.343Z,94.18
2017-03-27T04:15:26.314Z,93.98
2017-03-27T04:16:25.985Z,94.18
2017-03-27T04:17:26.276Z,94.27
2017-03-27T04:18:26.246Z,93.89
2017-03-27T04:19:26.237Z,94.18
2017-03-27T04:20:25.896Z,94.08
2017-03-27T04:21:25.876Z,94.37
2017-03-27T04:22:25.875Z,94.18
2017-03-27T04:23:26.150Z,94.27
2017-03-27T04:24:26.132Z,93.98
2017-03-27T04:25:26.095Z,94.18
2017-03-27T04:26:26.124Z,93.41
2017-03-27T04:27:26.056Z,93.41
2017-03-27T04:28:26.129Z,93.98
2017-03-27T04:29:26.006Z,93.89
2017-03-27T04:30:26.060Z,94.27
2017-03-27T04:31:25.966Z,94.46
2017-03-27T04:32:25.946Z,94.37
2017-03-27T04:33:25.617Z,93.98
2017-03-27T04:34:25.903Z,94.37
2017-03-27T04:35:25.876Z,94.18
2017-03-27T04:36:25.866Z,94.27
2017-03-27T04:37:25.836Z,94.08
2017-03-27T04:38:25.817Z,94.08
2017-03-27T04:39:25.486Z,94.18
2017-03-27T04:40:25.829Z,94.27
2017-03-27T04:41:25.747Z,93.89
2017-03-27T04:42:25.515Z,93.79
2017-03-27T04:43:25.393Z,93.79
2017-03-27T04:44:25.497Z,93.98
2017-03-27T04:45:25.356Z,93.98
2017-03-27T04:46:25.641Z,94.18
2017-03-27T04:47:25.615Z,94.18
2017-03-27T04:48:25.596Z,94.46
2017-03-27T04:49:25.576Z,94.18
2017-03-27T04:50:25.556Z,93.98
2017-03-27T04:51:25.640Z,93.89
2017-03-27T04:52:25.737Z,94.27
2017-03-27T04:53:25.492Z,93.98
2017-03-27T04:54:25.455Z,94.08
2017-03-27T04:55:25.436Z,94.18
2017-03-27T04:56:25.514Z,94.37
2017-03-27T04:57:25.395Z,93.79
2017-03-27T04:58:25.375Z,94.37
2017-03-27T04:59:25.347Z,94.37
2017-03-27T05:00:25.320Z,94.08
2017-03-27T05:01:25.309Z,94.08
2017-03-27T05:02:25.288Z,94.08
2017-03-27T05:03:24.956Z,94.46
2017-03-27T05:04:25.255Z,94.46
2017-03-27T05:05:24.915Z,94.65
2017-03-27T05:06:25.214Z,94.65
2017-03-27T05:07:25.176Z,94.37
2017-03-27T05:08:24.876Z,94.56
2017-03-27T05:09:24.831Z,94.08
2017-03-27T05:10:25.106Z,94.08
2017-03-27T05:11:24.775Z,94.27
2017-03-27T05:12:25.067Z,93.98
2017-03-27T05:13:24.746Z,93.6
2017-03-27T05:14:25.015Z,94.18
2017-03-27T05:15:24.994Z,93.79
2017-03-27T05:16:24.977Z,93.79
2017-03-27T05:17:24.958Z,93.89
2017-03-27T05:18:24.937Z,93.98
2017-03-27T05:19:24.915Z,93.7
2017-03-27T05:20:24.885Z,93.89
2017-03-27T05:21:24.871Z,94.18
2017-03-27T05:22:24.845Z,93.98
2017-03-27T05:23:24.835Z,94.08
2017-03-27T05:24:24.808Z,94.27
2017-03-27T05:25:24.469Z,93.6
2017-03-27T05:26:24.761Z,93.6
2017-03-27T05:27:24.726Z,93.7
2017-03-27T05:28:24.407Z,93.6
2017-03-27T05:29:24.686Z,93.41
2017-03-27T05:30:24.362Z,93.79
2017-03-27T05:31:24.652Z,93.6
2017-03-27T05:32:24.615Z,93.7
2017-03-27T05:33:24.594Z,93.51
2017-03-27T05:34:24.575Z,93.41
2017-03-27T05:35:24.255Z,93.6
2017-03-27T05:36:24.224Z,93.13
2017-03-27T05:37:24.206Z,93.13
2017-03-27T05:38:24.494Z,93.13
2017-03-27T05:39:24.475Z,93.23
2017-03-27T05:40:24.437Z,92.94
2017-03-27T05:41:24.415Z,93.13
2017-03-27T05:42:24.405Z,93.13
2017-03-27T05:43:24.376Z,93.04
2017-03-27T05:44:24.367Z,93.32
2017-03-27T05:45:24.334Z,93.23
2017-03-27T05:46:23.995Z,93.13
2017-03-27T05:47:24.285Z,93.23
2017-03-27T05:48:23.960Z,93.13
2017-03-27T05:49:24.244Z,93.04
2017-03-27T05:50:24.215Z,93.04
2017-03-27T05:51:24.199Z,92.84
2017-03-27T05:52:24.179Z,92.84
2017-03-27T05:53:23.858Z,92.94
2017-03-27T05:54:24.136Z,92.46
2017-03-27T05:55:24.114Z,92.65
2017-03-27T05:56:24.087Z,92.36
2017-03-27T05:57:23.770Z,92.65
2017-03-27T05:58:24.045Z,92.65
2017-03-27T05:59:24.026Z,92.94
2017-03-27T06:00:24.004Z,92.56
2017-03-27T06:01:23.984Z,92.94
2017-03-27T06:02:23.957Z,92.36
2017-03-27T06:03:23.932Z,92.65
2017-03-27T06:04:23.914Z,92.65
2017-03-27T06:05:23.893Z,92.46
2017-03-27T06:06:23.557Z,92.84
2017-03-27T06:07:23.845Z,92.08
2017-03-27T06:08:23.838Z,92.27
2017-03-27T06:09:23.805Z,92.27
2017-03-27T06:10:23.796Z,91.75
2017-03-27T06:11:23.768Z,91.94
2017-03-27T06:12:23.741Z,92.08
2017-03-27T06:13:23.719Z,92.27
2017-03-27T06:14:23.715Z,92.03
2017-03-27T06:15:23.681Z,91.65
2017-03-27T06:16:23.652Z,91.37
2017-03-27T06:17:23.624Z,91.27
2017-03-27T06:18:23.607Z,91.56
2017-03-27T06:19:23.592Z,91.08
2017-03-27T06:20:23.567Z,91.37
2017-03-27T06:21:23.534Z,90.89
2017-03-27T06:22:23.521Z,90.89
2017-03-27T06:23:23.510Z,90.99
2017-03-27T06:24:23.487Z,91.08
2017-03-27T06:25:23.458Z,90.7
2017-03-27T06:26:23.504Z,90.89
2017-03-27T06:27:23.414Z,90.89
2017-03-27T06:28:23.408Z,90.8
2017-03-27T06:29:23.364Z,90.8
2017-03-27T06:30:23.347Z,90.51
2017-03-27T06:31:23.334Z,90.22
2017-03-27T06:32:23.374Z,90.42
2017-03-27T06:33:23.276Z,90.7
2017-03-27T06:34:23.267Z,90.8
2017-03-27T06:35:23.246Z,90.89
2017-03-27T06:36:23.220Z,90.32
2017-03-27T06:37:22.892Z,90.8
2017-03-27T06:38:23.183Z,91.08
2017-03-27T06:39:22.846Z,90.32
2017-03-27T06:40:23.124Z,90.03
2017-03-27T06:41:23.105Z,89.94
2017-03-27T06:42:23.115Z,89.56
2017-03-27T06:43:23.066Z,89.27
2017-03-27T06:44:23.047Z,89.37
2017-03-27T06:45:22.719Z,89.03
2017-03-27T06:46:22.995Z,89.41
2017-03-27T06:47:22.975Z,89.03
2017-03-27T06:48:22.965Z,89.03
2017-03-27T06:49:22.935Z,89.32
2017-03-27T06:50:22.907Z,88.46
2017-03-27T06:51:22.586Z,88.18
2017-03-27T06:52:22.902Z,87.51
2017-03-27T06:53:22.846Z,87.13
2017-03-27T06:54:22.517Z,87.17
2017-03-27T06:55:22.808Z,87.51
2017-03-27T06:56:22.485Z,87.27
2017-03-27T06:57:22.766Z,86.6
2017-03-27T06:58:22.450Z,86.32
2017-03-27T06:59:22.724Z,86.12
2017-03-27T07:00:22.702Z,85.74
2017-03-27T07:01:22.675Z,85.17
2017-03-27T07:02:22.656Z,85.21
2017-03-27T07:03:22.643Z,84.16
2017-03-27T07:04:22.332Z,82.3
2017-03-27T07:05:22.586Z,80.53
2017-03-27T07:06:22.267Z,77.89
2017-03-27T07:07:22.267Z,75.39
2017-03-27T07:08:22.544Z,73.17
2017-03-27T07:09:22.213Z,69.89
2017-03-27T07:10:22.503Z,67.38
2017-03-27T07:11:22.478Z,64.92
2017-03-27T07:12:22.464Z,62.77
2017-03-27T07:13:22.455Z,60.91
2017-03-27T07:14:22.427Z,59.24
2017-03-27T07:15:22.420Z,57.45
2017-03-27T07:16:22.396Z,55.79
2017-03-27T07:17:22.378Z,53.73
2017-03-27T07:18:22.358Z,52.23
2017-03-27T07:19:22.346Z,51.75
2017-03-27T07:20:22.338Z,51.75
2017-03-27T07:21:22.302Z,50.43
2017-03-27T07:22:21.981Z,49.51
2017-03-27T07:23:22.021Z,48.93
2017-03-27T07:24:21.958Z,49.29
2017-03-27T07:25:22.236Z,48.64
2017-03-27T07:26:22.237Z,47.06
2017-03-27T07:27:21.915Z,46.22
2017-03-27T07:28:22.196Z,45.56
2017-03-27T07:29:22.176Z,45.29
2017-03-27T07:30:22.154Z,44.81
2017-03-27T07:31:22.146Z,44.42
2017-03-27T07:32:22.138Z,44.23
2017-03-27T07:33:22.116Z,44.03
2017-03-27T07:34:21.791Z,43.64
2017-03-27T07:35:22.085Z,43.57
2017-03-27T07:36:22.054Z,43.35
2017-03-27T07:37:22.045Z,43.2
2017-03-27T07:38:22.042Z,42.64
2017-03-27T07:39:22.073Z,42.85
2017-03-27T07:40:22.006Z,42.81
2017-03-27T07:41:21.675Z,42.89
2017-03-27T07:42:21.976Z,43.16
2017-03-27T07:43:21.967Z,42.71
2017-03-27T07:44:21.949Z,42.91
2017-03-27T07:45:21.935Z,42.43
2017-03-27T07:46:21.926Z,41.59
2017-03-27T07:47:21.910Z,40.85
2017-03-27T07:48:21.902Z,40.11
2017-03-27T07:49:21.884Z,39.75
2017-03-27T07:50:21.866Z,39.75
2017-03-27T07:51:21.895Z,40.19
2017-03-27T07:52:21.856Z,39.62
2017-03-27T07:53:21.536Z,39.53
2017-03-27T07:54:21.826Z,39.53
2017-03-27T07:55:21.824Z,39.24
2017-03-27T07:56:21.805Z,40.15
2017-03-27T07:57:21.805Z,40.52
2017-03-27T07:58:21.796Z,39.12
2017-03-27T07:59:21.782Z,38.56
2017-03-27T08:00:21.772Z,37.73
2017-03-27T08:01:21.459Z,37.35
2017-03-27T08:02:21.748Z,37.46
2017-03-27T08:03:21.745Z,37.09
2017-03-27T08:04:21.745Z,37.3
2017-03-27T08:05:21.725Z,36.78
2017-03-27T08:06:21.726Z,36.82
2017-03-27T08:07:21.717Z,36.78
2017-03-27T08:08:21.726Z,36.15
2017-03-27T08:09:21.710Z,36.18
2017-03-27T08:10:21.702Z,35.58
2017-03-27T08:11:21.770Z,35.09
2017-03-27T08:12:21.501Z,35.17
2017-03-27T08:13:21.696Z,35.36
2017-03-27T08:14:21.799Z,34.81
2017-03-27T08:15:21.680Z,34.84
2017-03-27T08:16:21.686Z,34.36
2017-03-27T08:17:21.372Z,34.89
2017-03-27T08:18:21.718Z,35.71
2017-03-27T08:19:21.349Z,35.74
2017-03-27T08:20:21.461Z,35.53
2017-03-27T08:21:21.355Z,34.52
2017-03-27T08:22:21.701Z,33.79
2017-03-27T08:23:21.648Z,33.2
2017-03-27T08:24:21.404Z,32.84
2017-03-27T08:25:21.655Z,33.45
2017-03-27T08:26:21.636Z,33.36
2017-03-27T08:27:21.642Z,32.89
2017-03-27T08:28:21.644Z,32.51
2017-03-27T08:29:21.324Z,32.82
2017-03-27T08:30:21.625Z,33.46
2017-03-27T08:31:21.626Z,33.38
2017-03-27T08:32:21.616Z,33.1
2017-03-27T08:33:21.693Z,32.73
2017-03-27T08:34:21.617Z,32.3
2017-03-27T08:35:21.631Z,32.25
2017-03-27T08:36:21.627Z,32.78
2017-03-27T08:37:21.626Z,32.9
2017-03-27T08:38:21.311Z,32.06
2017-03-27T08:39:21.310Z,31.9
2017-03-27T08:40:21.610Z,31.2
2017-03-27T08:41:21.303Z,31.48
2017-03-27T08:42:21.600Z,31.58
2017-03-27T08:43:21.313Z,31.12
2017-03-27T08:44:21.600Z,31.96
2017-03-27T08:45:21.635Z,32.09
2017-03-27T08:46:21.698Z,31.86
2017-03-27T08:47:21.645Z,31.01
2017-03-27T08:48:21.646Z,30.46
2017-03-27T08:49:21.634Z,30.17
2017-03-27T08:50:21.695Z,29.94
2017-03-27T08:51:21.607Z,29.86
2017-03-27T08:52:21.595Z,29.92
2017-03-27T08:53:21.576Z,29.71
2017-03-27T08:54:21.581Z,29.62
2017-03-27T08:55:21.578Z,29.61
2017-03-27T08:56:21.572Z,31.13
2017-03-27T08:57:21.580Z,30.71
2017-03-27T08:58:21.583Z,32.34
2017-03-27T08:59:21.276Z,31.83
2017-03-27T09:00:21.574Z,31.55
2017-03-27T09:01:21.596Z,31.17
2017-03-27T09:02:21.376Z,30.81
2017-03-27T09:03:21.586Z,30.43
2017-03-27T09:04:21.575Z,30.78
2017-03-27T09:05:21.575Z,31.14
2017-03-27T09:06:21.286Z,29.93
2017-03-27T09:07:21.565Z,29.3
2017-03-27T09:08:21.608Z,29.96
2017-03-27T09:09:21.676Z,30.9
2017-03-27T09:10:21.630Z,30.62
2017-03-27T09:11:21.566Z,30.3
2017-03-27T09:12:21.635Z,29.25
2017-03-27T09:13:21.625Z,28.63
2017-03-27T09:14:21.618Z,29.09
2017-03-27T09:15:21.605Z,28.81
2017-03-27T09:16:21.555Z,29.02
2017-03-27T09:17:21.568Z,29.47
2017-03-27T09:18:21.557Z,30.29
2017-03-27T09:19:21.261Z,31.02
2017-03-27T09:20:21.565Z,30.01
2017-03-27T09:21:21.562Z,30.12
2017-03-27T09:22:21.554Z,29.64
2017-03-27T09:23:21.252Z,29.02
2017-03-27T09:24:21.243Z,28.27
2017-03-27T09:25:21.339Z,27.99
2017-03-27T09:26:21.566Z,30.33
2017-03-27T09:27:21.548Z,30.01
2017-03-27T09:28:21.238Z,29.45
2017-03-27T09:29:21.549Z,28.63
2017-03-27T09:30:21.547Z,28.61
2017-03-27T09:31:21.538Z,29.05
2017-03-27T09:32:21.542Z,28.89
2017-03-27T09:33:21.373Z,28.92
2017-03-27T09:34:21.551Z,28.63
2017-03-27T09:35:21.612Z,28.72
2017-03-27T09:36:21.546Z,28.33
2017-03-27T09:37:21.230Z,28.54
2017-03-27T09:38:21.537Z,29.58
2017-03-27T09:39:21.295Z,29.43
2017-03-27T09:40:21.528Z,29.76
2017-03-27T09:41:21.537Z,28.52
2017-03-27T09:42:21.530Z,28.26
2017-03-27T09:43:21.559Z,28.08
2017-03-27T09:44:21.535Z,28.2
2017-03-27T09:45:21.527Z,28.65
2017-03-27T09:46:21.519Z,29.03
2017-03-27T09:47:21.517Z,29.39
2017-03-27T09:48:21.556Z,29.34
2017-03-27T09:49:21.527Z,30.58
2017-03-27T09:50:21.518Z,29.62
2017-03-27T09:51:21.509Z,30.43
2017-03-27T09:52:21.524Z,29.77
2017-03-27T09:53:21.505Z,29.39
2017-03-27T09:54:21.501Z,29.58
2017-03-27T09:55:21.525Z,30.39
2017-03-27T09:56:21.496Z,32.91
2017-03-27T09:57:21.497Z,34.09
2017-03-27T09:58:21.502Z,34.45
2017-03-27T09:59:21.180Z,34.43
2017-03-27T10:00:21.486Z,34.63
2017-03-27T10:01:21.507Z,35.58
2017-03-27T10:02:21.503Z,37.65
2017-03-27T10:03:21.175Z,38.27
2017-03-27T10:04:21.517Z,38.39
2017-03-27T10:05:21.474Z,38.87
2017-03-27T10:06:21.576Z,39.82
2017-03-27T10:07:21.471Z,39.82
2017-03-27T10:08:21.526Z,40.26
2017-03-27T10:09:21.575Z,40.83
2017-03-27T10:10:21.455Z,40.73
2017-03-27T10:11:21.448Z,40.07
2017-03-27T10:12:21.448Z,40.52
2017-03-27T10:13:21.497Z,41.08
2017-03-27T10:14:21.437Z,41.29
2017-03-27T10:15:21.446Z,41.19
2017-03-27T10:16:21.427Z,40.73
2017-03-27T10:17:21.427Z,41.73
2017-03-27T10:18:21.114Z,43.04
2017-03-27T10:19:21.113Z,43.98
2017-03-27T10:20:21.407Z,44.08
2017-03-27T10:21:21.098Z,43.62
2017-03-27T10:22:21.397Z,42.58
2017-03-27T10:23:21.389Z,42.99
2017-03-27T10:24:21.405Z,42.6
2017-03-27T10:25:21.147Z,42.97
2017-03-27T10:26:21.379Z,42.6
2017-03-27T10:27:21.367Z,42.52
2017-03-27T10:28:21.055Z,42.72
2017-03-27T10:29:21.356Z,43.01
2017-03-27T10:30:21.357Z,42.72
2017-03-27T10:31:21.336Z,43.3
2017-03-27T10:32:21.343Z,42.65
2017-03-27T10:33:21.327Z,42.04
2017-03-27T10:34:21.318Z,42.7
2017-03-27T10:35:21.327Z,42.62
2017-03-27T10:36:21.310Z,42.99
2017-03-27T10:37:21.008Z,44.05
2017-03-27T10:38:21.290Z,43.76
2017-03-27T10:39:21.296Z,42.93
2017-03-27T10:40:21.297Z,42.65
2017-03-27T10:41:20.967Z,42.18
2017-03-27T10:42:20.965Z,41.21
2017-03-27T10:43:20.955Z,41.33
2017-03-27T10:44:21.307Z,41.66
2017-03-27T10:45:20.931Z,42.07
2017-03-27T10:46:20.928Z,41.31
2017-03-27T10:47:21.238Z,41.58
2017-03-27T10:48:20.920Z,41.29
2017-03-27T10:49:21.220Z,41.67
2017-03-27T10:50:21.216Z,42.39
2017-03-27T10:51:21.201Z,43.06
2017-03-27T10:52:21.254Z,42.91
2017-03-27T10:53:20.876Z,42.65
2017-03-27T10:54:21.178Z,41.31
2017-03-27T10:55:20.855Z,40.83
2017-03-27T10:56:21.155Z,40.81
2017-03-27T10:57:21.153Z,40.69
2017-03-27T10:58:21.153Z,40.32
2017-03-27T10:59:20.868Z,39.94
2017-03-27T11:00:20.826Z,40.03
2017-03-27T11:01:21.118Z,39.84
2017-03-27T11:02:21.123Z,40.44
2017-03-27T11:03:21.103Z,39.37
2017-03-27T11:04:20.797Z,39.34
2017-03-27T11:05:20.778Z,39.99
2017-03-27T11:06:21.076Z,40.19
2017-03-27T11:07:21.069Z,40.19
2017-03-27T11:08:20.756Z,40.78
2017-03-27T11:09:21.055Z,40.57
2017-03-27T11:10:21.046Z,40.55
2017-03-27T11:11:21.031Z,41.52
2017-03-27T11:12:21.021Z,42.66
2017-03-27T11:13:21.031Z,41.52
2017-03-27T11:14:21.008Z,40.88
2017-03-27T11:15:21.016Z,41.25
2017-03-27T11:16:20.682Z,40.81
2017-03-27T11:17:20.990Z,40.52
2017-03-27T11:18:20.975Z,40.71
2017-03-27T11:19:20.978Z,40.69
2017-03-27T11:20:20.958Z,40.86
2017-03-27T11:21:20.957Z,41.13
2017-03-27T11:22:20.939Z,41.42
2017-03-27T11:23:20.936Z,41.27
2017-03-27T11:24:20.920Z,40.71
2017-03-27T11:25:20.909Z,41.02
2017-03-27T11:26:20.592Z,39.39
2017-03-27T11:27:20.587Z,38.91
2017-03-27T11:28:20.886Z,38.25
2017-03-27T11:29:20.567Z,38.31
2017-03-27T11:30:20.869Z,38.87
2017-03-27T11:31:20.853Z,38.76
2017-03-27T11:32:20.850Z,39.26
2017-03-27T11:33:20.537Z,39.16
2017-03-27T11:34:20.832Z,39.34
2017-03-27T11:35:20.517Z,40.4
2017-03-27T11:36:20.508Z,37.9
2017-03-27T11:37:20.800Z,37.34
2017-03-27T11:38:20.497Z,37.32
2017-03-27T11:39:20.800Z,37.5
2017-03-27T11:40:20.768Z,35.97
2017-03-27T11:41:20.766Z,35.88
2017-03-27T11:42:20.453Z,35.8
2017-03-27T11:43:20.756Z,34.54
2017-03-27T11:44:20.784Z,34.6
2017-03-27T11:45:20.727Z,35.36
2017-03-27T11:46:20.725Z,36.13
2017-03-27T11:47:20.715Z,36.13
2017-03-27T11:48:20.694Z,35.47
2017-03-27T11:49:20.707Z,35.47
2017-03-27T11:50:20.675Z,36.03
2017-03-27T11:51:20.665Z,36.22
2017-03-27T11:52:20.686Z,36.8
2017-03-27T11:53:20.648Z,36.11
2017-03-27T11:54:20.648Z,36.22
2017-03-27T11:55:20.320Z,36.13
2017-03-27T11:56:20.625Z,35.82
2017-03-27T11:57:20.632Z,36.01
2017-03-27T11:58:20.596Z,36.22
2017-03-27T11:59:20.613Z,36.82
2017-03-27T12:00:20.576Z,37.23
2017-03-27T12:01:20.598Z,36.94
2017-03-27T12:02:20.561Z,36.66
2017-03-27T12:03:20.557Z,36.76
2017-03-27T12:04:20.566Z,35.7
2017-03-27T12:05:20.529Z,35.58
2017-03-27T12:06:20.530Z,35.6
2017-03-27T12:07:20.512Z,35.31
2017-03-27T12:08:20.507Z,34.94
2017-03-27T12:09:20.498Z,35.21
2017-03-27T12:10:20.186Z,36.05
2017-03-27T12:11:20.475Z,36.42
2017-03-27T12:12:20.468Z,36.63
2017-03-27T12:13:20.166Z,36.74
2017-03-27T12:14:20.468Z,36.07
2017-03-27T12:15:20.508Z,35.88
2017-03-27T12:16:20.428Z,35.99
2017-03-27T12:17:20.527Z,35.39
2017-03-27T12:18:20.416Z,35.18
2017-03-27T12:19:20.529Z,36.03
2017-03-27T12:20:20.398Z,35.18
2017-03-27T12:21:20.129Z,35.02
2017-03-27T12:22:20.373Z,35.13
2017-03-27T12:23:20.488Z,34.19
2017-03-27T12:24:20.358Z,34.19
2017-03-27T12:25:20.368Z,34.36
2017-03-27T12:26:20.027Z,34.45
2017-03-27T12:27:20.349Z,35.02
2017-03-27T12:28:20.318Z,35.21
2017-03-27T12:29:20.370Z,35.41
2017-03-27T12:30:20.319Z,35.8
2017-03-27T12:31:20.296Z,35.88
2017-03-27T12:32:20.279Z,35.99
2017-03-27T12:33:20.273Z,35.8
2017-03-27T12:34:20.257Z,35.52
2017-03-27T12:35:20.269Z,35.35
2017-03-27T12:36:20.262Z,35.33
2017-03-27T12:37:20.229Z,36.02
2017-03-27T12:38:20.245Z,35.25
2017-03-27T12:39:20.217Z,35.25
2017-03-27T12:40:20.216Z,34.69
2017-03-27T12:41:20.191Z,35.07
2017-03-27T12:42:20.195Z,34.97
2017-03-27T12:43:20.185Z,34.59
2017-03-27T12:44:20.185Z,35.17
2017-03-27T12:45:20.156Z,36.2
2017-03-27T12:46:20.147Z,36.86
2017-03-27T12:47:19.856Z,36.07
2017-03-27T12:48:20.156Z,36.52
2017-03-27T12:49:19.826Z,36.8
2017-03-27T12:50:20.134Z,36.88
2017-03-27T12:51:20.118Z,37.43
2017-03-27T12:52:20.102Z,38.08
2017-03-27T12:53:20.109Z,38.56
2017-03-27T12:54:19.825Z,38.58